createdAt,value
2022-08-26T00:01:56.966Z,85.12
2022-08-26T00:04:25.747Z,85.19
2022-08-26T00:06:56.766Z,86.51
2022-08-26T00:09:25.594Z,86.23
2022-08-26T00:11:54.294Z,86.04
2022-08-26T00:14:27.067Z,85.94
2022-08-26T00:16:56.822Z,86.12
2022-08-26T00:19:24.763Z,85.31
2022-08-26T00:21:51.955Z,85.72
2022-08-26T00:24:21.640Z,85.56
2022-08-26T00:26:49.821Z,86.43
2022-08-26T00:29:18.207Z,86.31
2022-08-26T00:31:45.691Z,85.43
2022-08-26T00:34:14.305Z,86.57
2022-08-26T00:36:42.734Z,87.54
2022-08-26T00:39:10.350Z,87.10
2022-08-26T00:41:41.313Z,86.01
2022-08-26T00:44:11.129Z,86.47
2022-08-26T00:46:51.042Z,85.97
2022-08-26T00:49:37.750Z,86.27
2022-08-26T00:52:13.150Z,87.51
2022-08-26T00:54:49.480Z,87.43
2022-08-26T00:57:19.645Z,86.69
2022-08-26T00:59:54.798Z,88.12
2022-08-26T01:02:22.560Z,88.00
2022-08-26T01:04:57.931Z,88.21
2022-08-26T01:07:30.261Z,87.57
2022-08-26T01:10:01.766Z,88.78
2022-08-26T01:12:35.285Z,87.41
2022-08-26T01:15:08.555Z,88.64
2022-08-26T01:17:38.912Z,88.89
2022-08-26T01:20:36.592Z,87.89
2022-08-26T01:23:09.980Z,89.02
2022-08-26T01:25:44.874Z,88.39
2022-08-26T01:28:27.986Z,88.73
2022-08-26T01:30:57.170Z,88.80
2022-08-26T01:33:41.987Z,88.28
2022-08-26T01:36:11.793Z,88.27
2022-08-26T01:38:40.815Z,87.85
2022-08-26T01:41:12.471Z,88.67
2022-08-26T01:43:53.468Z,89.33
2022-08-26T01:46:23.654Z,89.12
2022-08-26T01:48:54.401Z,88.52
2022-08-26T01:51:24.600Z,88.98
2022-08-26T01:53:51.953Z,87.94
2022-08-26T01:56:23.456Z,88.92
2022-08-26T01:58:59.470Z,89.29
2022-08-26T02:01:29.228Z,89.51
2022-08-26T02:04:20.977Z,88.92
2022-08-26T02:06:49.791Z,89.12
2022-08-26T02:09:21.403Z,89.15
2022-08-26T02:11:48.709Z,90.13
2022-08-26T02:14:36.548Z,89.42
2022-08-26T02:17:11.785Z,89.57
2022-08-26T02:19:45.210Z,89.21
2022-08-26T02:22:21.658Z,90.06
2022-08-26T02:25:00.647Z,90.99
2022-08-26T02:27:34.202Z,89.58
2022-08-26T02:30:23.581Z,89.10
2022-08-26T02:32:51.767Z,89.66
2022-08-26T02:35:22.862Z,90.40
2022-08-26T02:37:52.152Z,89.57
2022-08-26T02:40:27.113Z,89.07
2022-08-26T02:42:56.949Z,88.98
2022-08-26T02:45:26.168Z,90.26
2022-08-26T02:47:53.697Z,89.67
2022-08-26T02:50:21.208Z,89.52
2022-08-26T02:52:48.779Z,89.64
2022-08-26T02:55:16.495Z,90.59
2022-08-26T02:57:43.888Z,90.57
2022-08-26T03:00:15.370Z,89.36
2022-08-26T03:02:42.712Z,89.18
2022-08-26T03:05:12.034Z,90.18
2022-08-26T03:07:39.634Z,90.87
2022-08-26T03:10:08.575Z,91.15
2022-08-26T03:12:36.999Z,90.63
2022-08-26T03:15:16.066Z,91.18
2022-08-26T03:17:49.128Z,90.79
2022-08-26T03:20:18.627Z,91.39
2022-08-26T03:22:46.728Z,90.65
2022-08-26T03:25:16.942Z,90.32
2022-08-26T03:27:44.428Z,90.67
2022-08-26T03:30:33.286Z,90.79
2022-08-26T03:33:01.316Z,90.44
2022-08-26T03:35:28.672Z,91.59
2022-08-26T03:37:55.857Z,90.53
2022-08-26T03:40:23.753Z,90.91
2022-08-26T03:42:56.392Z,90.63
2022-08-26T03:45:23.592Z,90.99
2022-08-26T03:47:52.495Z,91.33
2022-08-26T03:50:23.145Z,91.08
2022-08-26T03:52:54.545Z,90.66
2022-08-26T03:55:31.818Z,89.77
2022-08-26T03:58:00.416Z,91.19
2022-08-26T04:00:28.011Z,90.83
2022-08-26T04:02:55.099Z,91.10
2022-08-26T04:05:23.733Z,91.43
2022-08-26T04:07:51.988Z,91.41
2022-08-26T04:10:28.396Z,90.83
2022-08-26T04:12:59.394Z,90.77
2022-08-26T04:15:27.434Z,90.91
2022-08-26T04:17:55.972Z,91.66
2022-08-26T04:20:25.552Z,91.27
2022-08-26T04:22:52.967Z,91.94
2022-08-26T04:25:20.653Z,91.28
2022-08-26T04:27:48.270Z,91.53
2022-08-26T04:30:16.636Z,91.69
2022-08-26T04:32:44.216Z,90.86
2022-08-26T04:35:11.629Z,90.98
2022-08-26T04:37:39.013Z,91.20
2022-08-26T04:40:11.301Z,90.98
2022-08-26T04:42:38.463Z,90.19
2022-08-26T04:45:10.292Z,90.61
2022-08-26T04:47:38.731Z,90.08
2022-08-26T04:50:08.302Z,90.74
2022-08-26T04:52:38.170Z,89.72
2022-08-26T04:55:08.358Z,88.95
2022-08-26T04:57:36.209Z,89.90
2022-08-26T05:00:07.781Z,89.59
2022-08-26T05:02:34.862Z,90.78
2022-08-26T05:05:02.490Z,89.22
2022-08-26T05:07:30.215Z,89.42
2022-08-26T05:10:00.183Z,88.83
2022-08-26T05:12:29.906Z,89.69
2022-08-26T05:14:57.327Z,89.09
2022-08-26T05:17:24.485Z,89.31
2022-08-26T05:19:51.564Z,89.25
2022-08-26T05:22:20.177Z,88.86
2022-08-26T05:24:47.467Z,87.38
2022-08-26T05:27:14.873Z,87.41
2022-08-26T05:29:42.483Z,86.39
2022-08-26T05:32:11.392Z,86.98
2022-08-26T05:34:38.369Z,86.89
2022-08-26T05:37:06.706Z,87.38
2022-08-26T05:39:34.381Z,86.62
2022-08-26T05:42:01.604Z,86.74
2022-08-26T05:44:29.335Z,84.89
2022-08-26T05:47:16.294Z,86.94
2022-08-26T05:49:51.428Z,85.57
2022-08-26T05:52:20.147Z,85.50
2022-08-26T05:54:47.652Z,85.80
2022-08-26T05:57:15.925Z,85.81
2022-08-26T05:59:43.195Z,85.99
2022-08-26T06:02:10.303Z,84.96
2022-08-26T06:04:37.309Z,85.75
2022-08-26T06:07:04.379Z,83.63
2022-08-26T06:09:32.908Z,83.62
2022-08-26T06:12:01.838Z,83.49
2022-08-26T06:14:30.436Z,83.55
2022-08-26T06:16:57.736Z,83.22
2022-08-26T06:19:24.729Z,84.85
2022-08-26T06:21:54.701Z,82.47
2022-08-26T06:24:40.834Z,83.17
2022-08-26T06:27:13.362Z,82.43
2022-08-26T06:29:40.450Z,82.17
2022-08-26T06:32:08.783Z,81.18
2022-08-26T06:34:35.895Z,81.98
2022-08-26T06:37:03.479Z,82.66
2022-08-26T06:39:31.863Z,82.16
2022-08-26T06:42:00.570Z,81.37
2022-08-26T06:44:28.122Z,81.37
2022-08-26T06:46:55.276Z,81.57
2022-08-26T06:49:27.020Z,81.12
2022-08-26T06:51:59.637Z,80.40
2022-08-26T06:54:31.512Z,80.57
2022-08-26T06:56:59.422Z,80.78
2022-08-26T06:59:26.559Z,79.55
2022-08-26T07:01:54.788Z,78.82
2022-08-26T07:04:24.464Z,80.62
2022-08-26T07:06:53.715Z,79.26
2022-08-26T07:09:33.284Z,79.98
2022-08-26T07:12:04.151Z,79.07
2022-08-26T07:14:32.184Z,78.62
2022-08-26T07:17:00.246Z,78.58
2022-08-26T07:19:34.135Z,78.55
2022-08-26T07:22:05.089Z,77.82
2022-08-26T07:24:40.221Z,78.57
2022-08-26T07:27:15.282Z,77.76
2022-08-26T07:29:43.604Z,77.78
2022-08-26T07:32:13.419Z,78.32
2022-08-26T07:34:42.020Z,77.80
2022-08-26T07:37:10.300Z,77.44
2022-08-26T07:39:40.391Z,76.25
2022-08-26T07:42:10.657Z,76.38
2022-08-26T07:44:39.736Z,75.61
2022-08-26T07:47:24.835Z,75.36
2022-08-26T07:49:56.599Z,74.26
2022-08-26T07:52:27.370Z,73.50
2022-08-26T07:55:00.913Z,73.62
2022-08-26T07:57:29.271Z,73.79
2022-08-26T07:59:56.736Z,73.59
2022-08-26T08:02:28.513Z,73.27
2022-08-26T08:04:56.822Z,71.83
2022-08-26T08:07:38.577Z,71.88
2022-08-26T08:10:22.436Z,71.27
2022-08-26T08:12:52.838Z,72.40
2022-08-26T08:15:26.433Z,71.51
2022-08-26T08:17:55.578Z,71.05
2022-08-26T08:20:27.372Z,71.64
2022-08-26T08:22:54.933Z,70.41
2022-08-26T08:25:23.019Z,71.24
2022-08-26T08:27:50.646Z,70.36
2022-08-26T08:30:24.494Z,68.88
2022-08-26T08:32:52.808Z,67.32
2022-08-26T08:35:22.632Z,67.03
2022-08-26T08:37:54.658Z,66.72
2022-08-26T08:40:26.570Z,65.02
2022-08-26T08:43:13.336Z,66.34
2022-08-26T08:46:07.716Z,65.10
2022-08-26T08:48:43.332Z,65.95
2022-08-26T08:51:39.535Z,64.28
2022-08-26T08:54:08.486Z,63.39
2022-08-26T08:56:47.038Z,62.17
2022-08-26T08:59:26.430Z,63.30
2022-08-26T09:02:40.487Z,63.00
2022-08-26T09:05:31.881Z,62.50
2022-08-26T09:08:32.158Z,63.00
2022-08-26T09:11:01.316Z,61.64
2022-08-26T09:13:29.257Z,59.88
2022-08-26T09:16:15.866Z,61.47
2022-08-26T09:19:24.986Z,61.63
2022-08-26T09:21:59.258Z,57.90
2022-08-26T09:24:29.355Z,60.31
2022-08-26T09:26:58.216Z,61.30
2022-08-26T09:29:40.861Z,60.70
2022-08-26T09:32:25.168Z,60.04
2022-08-26T09:35:03.736Z,60.85
2022-08-26T09:40:36.851Z,57.58
2022-08-26T09:43:22.771Z,57.13
2022-08-26T09:46:12.177Z,58.85
2022-08-26T09:48:41.189Z,58.66
2022-08-26T09:51:23.043Z,57.73
2022-08-26T09:54:01.840Z,57.43
2022-08-26T09:56:39.160Z,57.33
2022-08-26T09:59:11.992Z,56.38
2022-08-26T10:01:43.168Z,58.54
2022-08-26T10:04:21.192Z,58.97
2022-08-26T10:07:01.084Z,59.13
2022-08-26T10:09:33.888Z,57.25
2022-08-26T10:12:20.517Z,55.78
2022-08-26T10:14:59.691Z,57.61
2022-08-26T10:18:27.916Z,55.00
2022-08-26T10:21:52.238Z,54.39
2022-08-26T10:24:41.002Z,53.00
2022-08-26T10:27:54.879Z,52.71
2022-08-26T10:30:31.593Z,53.30
2022-08-26T10:33:10.799Z,51.33
2022-08-26T10:36:00.009Z,50.06
2022-08-26T10:38:37.775Z,51.00
2022-08-26T10:41:13.963Z,51.83
2022-08-26T10:43:56.400Z,49.55
2022-08-26T10:46:28.597Z,47.98
2022-08-26T10:49:15.609Z,49.19
2022-08-26T10:52:16.576Z,49.39
2022-08-26T10:55:03.129Z,48.66
2022-08-26T10:58:26.708Z,51.12
2022-08-26T11:01:35.660Z,51.05
2022-08-26T11:04:48.446Z,51.05
2022-08-26T11:07:51.411Z,52.25
2022-08-26T11:10:19.270Z,52.33
2022-08-26T11:13:03.494Z,52.31
2022-08-26T11:15:33.377Z,55.46
2022-08-26T11:18:08.925Z,56.72
2022-08-26T11:20:46.219Z,57.17
2022-08-26T11:23:23.046Z,57.18
2022-08-26T11:25:57.618Z,59.11
2022-08-26T11:28:36.922Z,59.25
2022-08-26T11:31:10.824Z,57.94
2022-08-26T11:34:01.982Z,57.61
2022-08-26T11:36:49.097Z,58.74
2022-08-26T11:39:54.828Z,58.61
2022-08-26T11:42:55.568Z,58.81
2022-08-26T11:45:40.175Z,58.75
2022-08-26T11:48:33.277Z,58.99
2022-08-26T11:51:20.308Z,59.60
2022-08-26T11:54:35.123Z,62.43
2022-08-26T11:57:11.742Z,65.45
2022-08-26T11:59:45.288Z,66.00
2022-08-26T12:02:17.860Z,63.94
2022-08-26T12:04:51.050Z,63.40
2022-08-26T12:07:28.672Z,64.98
2022-08-26T12:10:11.350Z,64.82
2022-08-26T12:12:40.280Z,68.24
2022-08-26T12:15:21.894Z,70.38
2022-08-26T12:17:54.375Z,70.86
2022-08-26T12:20:48.622Z,69.68
2022-08-26T12:23:43.865Z,68.83
2022-08-26T12:26:38.312Z,68.86
2022-08-26T12:29:27.870Z,70.39
2022-08-26T12:32:18.220Z,72.65
2022-08-26T12:34:49.048Z,71.22
2022-08-26T12:37:16.943Z,71.04
2022-08-26T12:39:46.388Z,73.67
2022-08-26T12:42:13.370Z,74.03
2022-08-26T12:45:06.423Z,74.51
2022-08-26T12:47:44.618Z,79.67
2022-08-26T12:50:36.981Z,80.92
2022-08-26T12:53:11.363Z,80.35
2022-08-26T12:55:45.088Z,79.34
2022-08-26T12:58:23.901Z,81.18
2022-08-26T13:01:09.031Z,81.42
2022-08-26T13:03:38.728Z,84.05
2022-08-26T13:06:31.446Z,83.39
2022-08-26T13:09:10.523Z,82.45
2022-08-26T13:11:40.444Z,80.93
2022-08-26T13:14:24.139Z,79.43
2022-08-26T13:16:53.089Z,79.41
2022-08-26T13:19:25.544Z,80.45
2022-08-26T13:21:57.491Z,83.05
2022-08-26T13:24:38.513Z,86.03
2022-08-26T13:27:09.991Z,84.97
2022-08-26T13:29:37.328Z,84.90
2022-08-26T13:32:07.879Z,87.91
2022-08-26T13:34:38.137Z,87.51
2022-08-26T13:37:06.947Z,88.27
2022-08-26T13:39:45.227Z,88.16
2022-08-26T13:42:12.542Z,88.22
2022-08-26T13:44:47.724Z,88.72
2022-08-26T13:47:15.556Z,87.33
2022-08-26T13:49:43.876Z,87.08
2022-08-26T13:52:11.804Z,88.54
2022-08-26T13:54:39.211Z,88.95
2022-08-26T13:57:09.808Z,89.51
2022-08-26T13:59:40.103Z,90.96
2022-08-26T14:02:07.996Z,91.15
2022-08-26T14:04:55.494Z,90.78
2022-08-26T14:07:26.241Z,91.07
2022-08-26T14:09:53.447Z,92.03
2022-08-26T14:12:20.692Z,92.79
2022-08-26T14:14:48.121Z,92.96
2022-08-26T14:17:30.715Z,93.02
2022-08-26T14:20:00.275Z,93.11
2022-08-26T14:22:27.717Z,92.94
2022-08-26T14:24:55.036Z,92.31
2022-08-26T14:27:22.059Z,92.78
2022-08-26T14:29:49.091Z,92.53
2022-08-26T14:32:27.140Z,91.97
2022-08-26T14:35:00.175Z,92.09
2022-08-26T14:37:27.455Z,91.59
2022-08-26T14:39:54.598Z,91.60
2022-08-26T14:42:31.561Z,90.61
2022-08-26T14:45:04.705Z,89.45
2022-08-26T14:47:31.922Z,88.75
2022-08-26T14:49:58.929Z,88.10
2022-08-26T14:52:26.269Z,89.06
2022-08-26T14:54:54.870Z,89.84
2022-08-26T14:57:22.510Z,89.16
2022-08-26T14:59:52.606Z,88.83
2022-08-26T15:02:32.412Z,88.96
2022-08-26T15:05:03.129Z,88.14
2022-08-26T15:07:30.522Z,88.53
2022-08-26T15:09:57.902Z,89.08
2022-08-26T15:12:24.940Z,87.40
2022-08-26T15:14:52.214Z,87.31
2022-08-26T15:17:19.271Z,86.86
2022-08-26T15:19:46.700Z,87.91
2022-08-26T15:22:13.758Z,89.46
2022-08-26T15:24:40.822Z,90.41
2022-08-26T15:27:09.053Z,89.28
2022-08-26T15:29:36.411Z,89.00
2022-08-26T15:32:04.833Z,87.82
2022-08-26T15:34:32.179Z,87.93
2022-08-26T15:36:59.828Z,87.83
2022-08-26T15:39:28.365Z,88.37
2022-08-26T15:42:00.055Z,88.26
2022-08-26T15:44:28.127Z,87.73
2022-08-26T15:47:00.795Z,88.53
2022-08-26T15:49:27.987Z,86.65
2022-08-26T15:51:58.343Z,87.32
2022-08-26T15:54:25.414Z,88.34
2022-08-26T15:56:53.046Z,88.18
2022-08-26T15:59:22.033Z,87.26
2022-08-26T16:01:49.713Z,87.04
2022-08-26T16:04:18.504Z,86.48
2022-08-26T16:06:50.114Z,87.49
2022-08-26T16:09:18.668Z,86.88
2022-08-26T16:11:45.669Z,85.87
2022-08-26T16:14:12.779Z,84.71
2022-08-26T16:16:40.388Z,85.09
2022-08-26T16:19:08.814Z,85.79
2022-08-26T16:21:36.304Z,86.77
2022-08-26T16:24:05.677Z,86.11
2022-08-26T16:26:37.635Z,86.76
2022-08-26T16:29:10.641Z,86.79
2022-08-26T16:31:38.577Z,86.82
2022-08-26T16:34:07.681Z,86.72
2022-08-26T16:36:37.853Z,88.63
2022-08-26T16:39:07.372Z,88.99
2022-08-26T16:41:35.634Z,89.42
2022-08-26T16:44:06.789Z,89.00
2022-08-26T16:46:35.322Z,89.70
2022-08-26T16:49:04.551Z,89.54
2022-08-26T16:51:32.508Z,90.55
2022-08-26T16:54:07.072Z,90.84
2022-08-26T16:56:34.893Z,91.08
2022-08-26T16:59:10.520Z,89.93
2022-08-26T17:01:37.748Z,90.13
2022-08-26T17:04:05.560Z,90.15
2022-08-26T17:06:32.711Z,89.19
2022-08-26T17:08:59.759Z,88.92
2022-08-26T17:11:26.926Z,89.47
2022-08-26T17:13:53.954Z,88.38
2022-08-26T17:16:26.213Z,89.47
2022-08-26T17:18:56.519Z,88.73
2022-08-26T17:21:24.186Z,88.87
2022-08-26T17:23:51.916Z,89.25
2022-08-26T17:26:19.115Z,90.17
2022-08-26T17:28:46.147Z,90.88
2022-08-26T17:31:14.033Z,90.05
2022-08-26T17:33:41.547Z,90.56
2022-08-26T17:36:09.979Z,90.78
2022-08-26T17:38:38.146Z,89.51
2022-08-26T17:41:14.334Z,90.56
2022-08-26T17:43:41.818Z,89.97
2022-08-26T17:46:11.280Z,90.56
2022-08-26T17:48:40.536Z,89.92
2022-08-26T17:51:15.033Z,90.90
2022-08-26T17:53:43.034Z,90.50
2022-08-26T17:56:14.910Z,91.08
2022-08-26T17:58:50.936Z,91.48
2022-08-26T18:01:21.286Z,90.76
2022-08-26T18:03:49.317Z,92.05
2022-08-26T18:06:16.807Z,92.11
2022-08-26T18:08:44.865Z,91.84
2022-08-26T18:11:17.380Z,91.87
2022-08-26T18:13:47.147Z,90.63
2022-08-26T18:16:17.559Z,90.96
2022-08-26T18:18:46.421Z,91.89
2022-08-26T18:21:18.794Z,92.16
2022-08-26T18:23:47.515Z,92.32
2022-08-26T18:26:32.759Z,92.18
2022-08-26T18:29:00.614Z,91.55
2022-08-26T18:31:28.834Z,91.12
2022-08-26T18:33:56.231Z,90.97
2022-08-26T18:36:36.824Z,90.89
2022-08-26T18:39:06.856Z,91.04
2022-08-26T18:41:43.001Z,90.67
2022-08-26T18:44:13.596Z,91.59
2022-08-26T18:46:42.625Z,91.58
2022-08-26T18:49:14.514Z,91.00
2022-08-26T18:51:42.947Z,91.66
2022-08-26T18:54:10.611Z,92.51
2022-08-26T18:56:40.349Z,93.01
2022-08-26T18:59:08.533Z,92.91
2022-08-26T19:01:40.496Z,93.31
2022-08-26T19:04:14.114Z,94.12
2022-08-26T19:06:46.897Z,94.33
2022-08-26T19:09:17.885Z,93.65
2022-08-26T19:11:46.225Z,93.39
2022-08-26T19:14:15.896Z,93.89
2022-08-26T19:16:48.525Z,93.05
2022-08-26T19:19:16.326Z,93.39
2022-08-26T19:21:44.187Z,92.92
2022-08-26T19:24:19.116Z,92.78
2022-08-26T19:26:57.826Z,92.29
2022-08-26T19:29:33.031Z,92.22
2022-08-26T19:32:00.837Z,91.55
2022-08-26T19:34:27.929Z,91.68
2022-08-26T19:36:56.875Z,91.75
2022-08-26T19:39:25.254Z,91.21
2022-08-26T19:41:53.437Z,91.27
2022-08-26T19:44:41.574Z,91.52
2022-08-26T19:47:11.084Z,91.38
2022-08-26T19:49:38.952Z,91.06
2022-08-26T19:52:06.487Z,90.64
2022-08-26T19:54:35.200Z,90.06
2022-08-26T19:57:02.399Z,89.94
2022-08-26T19:59:29.436Z,89.38
2022-08-26T20:02:01.523Z,90.42
2022-08-26T20:04:31.623Z,91.07
2022-08-26T20:07:01.109Z,90.90
2022-08-26T20:09:30.653Z,91.93
2022-08-26T20:11:57.674Z,91.55
2022-08-26T20:14:27.055Z,91.55
2022-08-26T20:16:54.297Z,92.19
2022-08-26T20:19:40.366Z,92.24
2022-08-26T20:22:08.179Z,92.38
2022-08-26T20:24:35.979Z,92.23
2022-08-26T20:27:07.804Z,92.64
2022-08-26T20:29:36.642Z,92.31
2022-08-26T20:32:06.814Z,92.46
2022-08-26T20:34:35.317Z,92.18
2022-08-26T20:37:03.081Z,91.89
2022-08-26T20:39:30.179Z,91.69
2022-08-26T20:41:58.237Z,91.58
2022-08-26T20:44:26.810Z,91.28
2022-08-26T20:46:53.962Z,90.71
2022-08-26T20:49:21.334Z,91.10
2022-08-26T20:51:52.601Z,90.91
2022-08-26T20:54:26.236Z,91.58
2022-08-26T20:56:57.984Z,91.65
2022-08-26T20:59:26.148Z,92.77
2022-08-26T21:01:53.564Z,93.14
2022-08-26T21:04:25.589Z,92.60
2022-08-26T21:06:54.305Z,93.89
2022-08-26T21:09:24.140Z,93.61
2022-08-26T21:11:52.526Z,92.50
2022-08-26T21:14:20.593Z,92.57
2022-08-26T21:16:47.839Z,93.19
2022-08-26T21:19:20.175Z,93.09
2022-08-26T21:21:48.446Z,92.50
2022-08-26T21:24:16.678Z,92.01
2022-08-26T21:26:43.771Z,91.43
2022-08-26T21:29:10.899Z,92.07
2022-08-26T21:31:44.883Z,91.48
2022-08-26T21:34:18.642Z,90.90
2022-08-26T21:36:49.647Z,90.33
2022-08-26T21:39:17.183Z,91.06
2022-08-26T21:41:45.595Z,90.24
2022-08-26T21:44:15.150Z,91.20
2022-08-26T21:46:44.460Z,91.82
2022-08-26T21:49:15.923Z,91.91
2022-08-26T21:51:47.380Z,92.11
2022-08-26T21:54:15.492Z,92.99
2022-08-26T21:56:47.135Z,92.15
2022-08-26T21:59:18.352Z,91.92
2022-08-26T22:01:46.054Z,90.46
2022-08-26T22:04:13.631Z,90.67
2022-08-26T22:06:46.980Z,90.64
2022-08-26T22:09:19.824Z,91.92
2022-08-26T22:11:47.577Z,91.33
2022-08-26T22:14:16.685Z,91.79
2022-08-26T22:16:45.713Z,91.37
2022-08-26T22:19:23.603Z,91.43
2022-08-26T22:21:54.571Z,91.56
2022-08-26T22:24:24.727Z,91.68
2022-08-26T22:26:52.267Z,91.62
2022-08-26T22:29:20.188Z,92.39
2022-08-26T22:31:47.440Z,92.69
2022-08-26T22:34:17.279Z,92.47
2022-08-26T22:36:48.078Z,93.53
2022-08-26T22:39:20.175Z,93.62
2022-08-26T22:41:48.548Z,93.79
2022-08-26T22:44:18.250Z,93.65
2022-08-26T22:46:46.425Z,93.67
2022-08-26T22:49:16.443Z,93.15
2022-08-26T22:51:45.966Z,92.90
2022-08-26T22:54:14.628Z,93.08
2022-08-26T22:56:53.714Z,92.76
2022-08-26T22:59:21.198Z,93.05
2022-08-26T23:01:48.410Z,93.09
2022-08-26T23:04:16.490Z,92.67
2022-08-26T23:06:47.617Z,92.50
2022-08-26T23:09:17.950Z,92.91
2022-08-26T23:11:47.715Z,92.93
2022-08-26T23:14:17.140Z,92.96
2022-08-26T23:16:44.722Z,92.17
2022-08-26T23:19:15.820Z,91.21
2022-08-26T23:21:43.297Z,91.10
2022-08-26T23:24:13.955Z,91.85
2022-08-26T23:26:42.428Z,91.93
2022-08-26T23:29:12.962Z,92.72
2022-08-26T23:31:42.151Z,92.64
2022-08-26T23:34:29.433Z,93.21
2022-08-26T23:36:58.932Z,93.58
2022-08-26T23:39:26.384Z,94.06
2022-08-26T23:41:53.458Z,94.03
2022-08-26T23:44:20.783Z,93.89
2022-08-26T23:46:47.861Z,93.69
2022-08-26T23:49:14.875Z,93.36
2022-08-26T23:52:00.450Z,93.58
2022-08-26T23:54:27.671Z,93.52
2022-08-26T23:56:54.715Z,93.50
2022-08-26T23:59:21.760Z,93.27
